sensor_id;sensor_type;location;lat;lon;timestamp;temperature;humidity
35804;DHT22;21924;51.934;7.414;2023-04-01T00:01:12;9.40;99.90
35804;DHT22;21924;51.934;7.414;2023-04-01T00:04:00;9.40;99.90
35804;DHT22;21924;51.934;7.414;2023-04-01T00:06:46;9.40;99.90
35804;DHT22;21924;51.934;7.414;2023-04-01T00:09:31;9.40;99.90
35804;DHT22;21924;51.934;7.414;2023-04-01T00:12:15;9.40;99.90
35804;DHT22;21924;51.934;7.414;2023-04-01T00:15:00;9.40;99.90
35804;DHT22;21924;51.934;7.414;2023-04-01T00:17:44;9.40;99.90
35804;DHT22;21924;51.934;7.414;2023-04-01T00:20:29;9.40;99.90
35804;DHT22;21924;51.934;7.414;2023-04-01T00:23:14;9.40;99.90
35804;DHT22;21924;51.934;7.414;2023-04-01T00:26:02;9.40;99.90
35804;DHT22;21924;51.934;7.414;2023-04-01T00:28:47;9.40;99.90
35804;DHT22;21924;51.934;7.414;2023-04-01T00:31:31;9.30;99.90
35804;DHT22;21924;51.934;7.414;2023-04-01T00:34:16;9.30;99.90
35804;DHT22;21924;51.934;7.414;2023-04-01T00:37:00;9.30;99.90
35804;DHT22;21924;51.934;7.414;2023-04-01T00:39:45;9.30;99.90
35804;DHT22;21924;51.934;7.414;2023-04-01T00:42:29;9.30;99.90
35804;DHT22;21924;51.934;7.414;2023-04-01T00:45:34;9.30;99.90
35804;DHT22;21924;51.934;7.414;2023-04-01T00:48:25;9.30;99.90
35804;DHT22;21924;51.934;7.414;2023-04-01T00:51:17;9.30;99.90
35804;DHT22;21924;51.934;7.414;2023-04-01T00:54:02;9.30;99.90
35804;DHT22;21924;51.934;7.414;2023-04-01T00:56:57;9.30;99.90
35804;DHT22;21924;51.934;7.414;2023-04-01T00:59:46;9.30;99.90
35804;DHT22;21924;51.934;7.414;2023-04-01T01:02:31;9.30;99.90
35804;DHT22;21924;51.934;7.414;2023-04-01T01:05:17;9.20;99.90
35804;DHT22;21924;51.934;7.414;2023-04-01T01:08:18;9.30;99.90
35804;DHT22;21924;51.934;7.414;2023-04-01T01:11:08;9.30;99.90
35804;DHT22;21924;51.934;7.414;2023-04-01T01:14:09;9.30;99.90
35804;DHT22;21924;51.934;7.414;2023-04-01T01:17:06;9.30;99.90
35804;DHT22;21924;51.934;7.414;2023-04-01T01:20:10;9.30;99.90
35804;DHT22;21924;51.934;7.414;2023-04-01T01:26:42;9.30;99.90
35804;DHT22;21924;51.934;7.414;2023-04-01T01:35:53;9.30;99.90
35804;DHT22;21924;51.934;7.414;2023-04-01T01:38:39;9.30;99.90
35804;DHT22;21924;51.934;7.414;2023-04-01T01:41:25;9.30;99.90
35804;DHT22;21924;51.934;7.414;2023-04-01T01:44:12;9.30;99.90
35804;DHT22;21924;51.934;7.414;2023-04-01T01:46:58;9.30;99.90
35804;DHT22;21924;51.934;7.414;2023-04-01T01:49:44;9.30;99.90
35804;DHT22;21924;51.934;7.414;2023-04-01T01:52:29;9.30;99.90
35804;DHT22;21924;51.934;7.414;2023-04-01T01:55:28;9.20;99.90
35804;DHT22;21924;51.934;7.414;2023-04-01T01:58:19;9.30;99.90
35804;DHT22;21924;51.934;7.414;2023-04-01T02:01:07;9.20;99.90
35804;DHT22;21924;51.934;7.414;2023-04-01T02:03:55;9.30;99.90
35804;DHT22;21924;51.934;7.414;2023-04-01T02:06:45;9.20;99.90
35804;DHT22;21924;51.934;7.414;2023-04-01T02:09:31;9.30;99.90
35804;DHT22;21924;51.934;7.414;2023-04-01T02:12:19;9.20;99.90
35804;DHT22;21924;51.934;7.414;2023-04-01T02:15:10;9.20;99.90
35804;DHT22;21924;51.934;7.414;2023-04-01T02:17:55;9.20;99.90
35804;DHT22;21924;51.934;7.414;2023-04-01T02:20:41;9.20;99.90
35804;DHT22;21924;51.934;7.414;2023-04-01T02:23:27;9.20;99.90
35804;DHT22;21924;51.934;7.414;2023-04-01T02:26:13;9.20;99.90
35804;DHT22;21924;51.934;7.414;2023-04-01T02:28:59;9.20;99.90
35804;DHT22;21924;51.934;7.414;2023-04-01T02:31:45;9.20;99.90
35804;DHT22;21924;51.934;7.414;2023-04-01T02:34:29;9.20;99.90
35804;DHT22;21924;51.934;7.414;2023-04-01T02:37:14;9.20;99.90
35804;DHT22;21924;51.934;7.414;2023-04-01T02:40:01;9.20;99.90
35804;DHT22;21924;51.934;7.414;2023-04-01T02:42:46;9.10;99.90
35804;DHT22;21924;51.934;7.414;2023-04-01T02:45:30;9.20;99.90
35804;DHT22;21924;51.934;7.414;2023-04-01T02:48:14;9.20;99.90
35804;DHT22;21924;51.934;7.414;2023-04-01T02:50:58;9.20;99.90
35804;DHT22;21924;51.934;7.414;2023-04-01T02:53:43;9.10;99.90
35804;DHT22;21924;51.934;7.414;2023-04-01T02:56:27;9.10;99.90
35804;DHT22;21924;51.934;7.414;2023-04-01T02:59:11;9.10;99.90
35804;DHT22;21924;51.934;7.414;2023-04-01T03:01:56;9.10;99.90
35804;DHT22;21924;51.934;7.414;2023-04-01T03:04:40;9.10;99.90
35804;DHT22;21924;51.934;7.414;2023-04-01T03:07:24;9.10;99.90
35804;DHT22;21924;51.934;7.414;2023-04-01T03:10:09;9.10;99.90
35804;DHT22;21924;51.934;7.414;2023-04-01T03:12:53;9.10;99.90
35804;DHT22;21924;51.934;7.414;2023-04-01T03:15:38;9.10;99.90
35804;DHT22;21924;51.934;7.414;2023-04-01T03:18:22;9.10;99.90
35804;DHT22;21924;51.934;7.414;2023-04-01T03:21:17;9.10;99.90
35804;DHT22;21924;51.934;7.414;2023-04-01T03:24:02;9.10;99.90
35804;DHT22;21924;51.934;7.414;2023-04-01T03:26:46;9.10;99.90
35804;DHT22;21924;51.934;7.414;2023-04-01T03:29:30;9.10;99.90
35804;DHT22;21924;51.934;7.414;2023-04-01T03:32:14;9.10;99.90
35804;DHT22;21924;51.934;7.414;2023-04-01T03:34:59;9.10;99.90
35804;DHT22;21924;51.934;7.414;2023-04-01T03:37:43;9.10;99.90
35804;DHT22;21924;51.934;7.414;2023-04-01T03:40:27;9.20;99.90
35804;DHT22;21924;51.934;7.414;2023-04-01T03:43:12;9.10;99.90
35804;DHT22;21924;51.934;7.414;2023-04-01T03:45:56;9.10;99.90
35804;DHT22;21924;51.934;7.414;2023-04-01T03:48:41;9.10;99.90
35804;DHT22;21924;51.934;7.414;2023-04-01T03:51:25;9.10;99.90
35804;DHT22;21924;51.934;7.414;2023-04-01T03:54:10;9.10;99.90
35804;DHT22;21924;51.934;7.414;2023-04-01T03:56:54;9.10;99.90
35804;DHT22;21924;51.934;7.414;2023-04-01T03:59:39;9.10;99.90
35804;DHT22;21924;51.934;7.414;2023-04-01T04:02:23;9.10;99.90
35804;DHT22;21924;51.934;7.414;2023-04-01T04:05:07;9.10;99.90
35804;DHT22;21924;51.934;7.414;2023-04-01T04:07:52;9.10;99.90
35804;DHT22;21924;51.934;7.414;2023-04-01T04:10:36;9.10;99.90
35804;DHT22;21924;51.934;7.414;2023-04-01T04:13:20;9.10;99.90
35804;DHT22;21924;51.934;7.414;2023-04-01T04:16:05;9.20;99.90
35804;DHT22;21924;51.934;7.414;2023-04-01T04:18:49;9.20;99.90
35804;DHT22;21924;51.934;7.414;2023-04-01T04:21:35;9.20;99.90
35804;DHT22;21924;51.934;7.414;2023-04-01T04:24:19;9.20;99.90
35804;DHT22;21924;51.934;7.414;2023-04-01T04:27:03;9.20;99.90
35804;DHT22;21924;51.934;7.414;2023-04-01T04:29:48;9.20;99.90
35804;DHT22;21924;51.934;7.414;2023-04-01T04:32:32;9.20;99.90
35804;DHT22;21924;51.934;7.414;2023-04-01T04:35:16;9.20;99.90
35804;DHT22;21924;51.934;7.414;2023-04-01T04:38:00;9.20;99.90
35804;DHT22;21924;51.934;7.414;2023-04-01T04:40:45;9.20;99.90
35804;DHT22;21924;51.934;7.414;2023-04-01T04:43:29;9.20;99.90
35804;DHT22;21924;51.934;7.414;2023-04-01T04:46:13;9.20;99.90
35804;DHT22;21924;51.934;7.414;2023-04-01T04:48:57;9.20;99.90
35804;DHT22;21924;51.934;7.414;2023-04-01T04:51:42;9.20;99.90
35804;DHT22;21924;51.934;7.414;2023-04-01T04:54:26;9.20;99.90
35804;DHT22;21924;51.934;7.414;2023-04-01T04:57:10;9.20;99.90
35804;DHT22;21924;51.934;7.414;2023-04-01T04:59:54;9.20;99.90
35804;DHT22;21924;51.934;7.414;2023-04-01T05:02:39;9.20;99.90
35804;DHT22;21924;51.934;7.414;2023-04-01T05:05:23;9.20;99.90
35804;DHT22;21924;51.934;7.414;2023-04-01T05:08:07;9.20;99.90
35804;DHT22;21924;51.934;7.414;2023-04-01T05:10:52;9.20;99.90
35804;DHT22;21924;51.934;7.414;2023-04-01T05:13:36;9.20;99.90
35804;DHT22;21924;51.934;7.414;2023-04-01T05:16:21;9.20;99.90
35804;DHT22;21924;51.934;7.414;2023-04-01T05:19:05;9.20;99.90
35804;DHT22;21924;51.934;7.414;2023-04-01T05:21:49;9.20;99.90
35804;DHT22;21924;51.934;7.414;2023-04-01T05:24:33;9.20;99.90
35804;DHT22;21924;51.934;7.414;2023-04-01T05:27:18;9.10;99.90
35804;DHT22;21924;51.934;7.414;2023-04-01T05:30:03;9.20;99.90
35804;DHT22;21924;51.934;7.414;2023-04-01T05:32:47;9.20;99.90
35804;DHT22;21924;51.934;7.414;2023-04-01T05:35:32;9.20;99.90
35804;DHT22;21924;51.934;7.414;2023-04-01T05:38:16;9.20;99.90
35804;DHT22;21924;51.934;7.414;2023-04-01T05:41:01;9.20;99.90
35804;DHT22;21924;51.934;7.414;2023-04-01T05:43:46;9.20;99.90
35804;DHT22;21924;51.934;7.414;2023-04-01T05:46:31;9.20;99.90
35804;DHT22;21924;51.934;7.414;2023-04-01T05:49:16;9.20;99.90
35804;DHT22;21924;51.934;7.414;2023-04-01T05:52:00;9.30;99.90
35804;DHT22;21924;51.934;7.414;2023-04-01T05:54:44;9.30;99.90
35804;DHT22;21924;51.934;7.414;2023-04-01T05:57:28;9.30;99.90
35804;DHT22;21924;51.934;7.414;2023-04-01T06:00:13;9.30;99.90
35804;DHT22;21924;51.934;7.414;2023-04-01T06:02:59;9.30;99.90
35804;DHT22;21924;51.934;7.414;2023-04-01T06:05:44;9.40;99.90
35804;DHT22;21924;51.934;7.414;2023-04-01T06:08:31;9.40;99.90
35804;DHT22;21924;51.934;7.414;2023-04-01T06:14:28;9.40;99.90
35804;DHT22;21924;51.934;7.414;2023-04-01T06:20:26;9.50;99.90
35804;DHT22;21924;51.934;7.414;2023-04-01T06:26:30;9.60;99.90
35804;DHT22;21924;51.934;7.414;2023-04-01T06:32:40;9.60;99.90
35804;DHT22;21924;51.934;7.414;2023-04-01T06:44:35;9.70;99.90
35804;DHT22;21924;51.934;7.414;2023-04-01T06:47:52;9.70;99.90
35804;DHT22;21924;51.934;7.414;2023-04-01T06:51:01;9.80;99.90
35804;DHT22;21924;51.934;7.414;2023-04-01T06:54:03;9.70;99.90
35804;DHT22;21924;51.934;7.414;2023-04-01T06:56:53;9.70;99.90
35804;DHT22;21924;51.934;7.414;2023-04-01T06:59:41;9.70;99.90
35804;DHT22;21924;51.934;7.414;2023-04-01T07:02:37;9.70;99.90
35804;DHT22;21924;51.934;7.414;2023-04-01T07:05:23;9.70;99.90
35804;DHT22;21924;51.934;7.414;2023-04-01T07:08:13;9.80;99.90
35804;DHT22;21924;51.934;7.414;2023-04-01T07:11:03;9.70;99.90
35804;DHT22;21924;51.934;7.414;2023-04-01T07:13:55;9.70;99.90
35804;DHT22;21924;51.934;7.414;2023-04-01T07:16:47;9.70;99.90
35804;DHT22;21924;51.934;7.414;2023-04-01T07:22:49;9.80;99.90
35804;DHT22;21924;51.934;7.414;2023-04-01T07:25:43;9.80;99.90
35804;DHT22;21924;51.934;7.414;2023-04-01T07:28:31;9.80;99.90
35804;DHT22;21924;51.934;7.414;2023-04-01T07:34:12;9.90;99.90
35804;DHT22;21924;51.934;7.414;2023-04-01T07:37:10;10.00;99.90
35804;DHT22;21924;51.934;7.414;2023-04-01T07:50:08;10.00;99.90
35804;DHT22;21924;51.934;7.414;2023-04-01T07:56:06;10.10;99.90
35804;DHT22;21924;51.934;7.414;2023-04-01T07:59:14;10.10;99.90
35804;DHT22;21924;51.934;7.414;2023-04-01T08:02:02;10.10;99.90
35804;DHT22;21924;51.934;7.414;2023-04-01T08:05:04;10.20;99.90
35804;DHT22;21924;51.934;7.414;2023-04-01T08:11:04;10.20;99.90
35804;DHT22;21924;51.934;7.414;2023-04-01T08:22:51;10.30;99.90
35804;DHT22;21924;51.934;7.414;2023-04-01T08:25:40;10.30;99.90
35804;DHT22;21924;51.934;7.414;2023-04-01T08:28:33;10.30;99.90
35804;DHT22;21924;51.934;7.414;2023-04-01T08:34:36;10.30;99.90
35804;DHT22;21924;51.934;7.414;2023-04-01T08:37:24;10.40;99.90
35804;DHT22;21924;51.934;7.414;2023-04-01T08:44:04;10.50;99.90
35804;DHT22;21924;51.934;7.414;2023-04-01T08:53:12;10.50;99.90
35804;DHT22;21924;51.934;7.414;2023-04-01T09:02:22;10.60;99.90
35804;DHT22;21924;51.934;7.414;2023-04-01T09:08:28;10.60;99.90
35804;DHT22;21924;51.934;7.414;2023-04-01T09:18:22;10.70;99.90
35804;DHT22;21924;51.934;7.414;2023-04-01T09:21:23;10.70;99.90
35804;DHT22;21924;51.934;7.414;2023-04-01T09:27:05;10.60;99.90
35804;DHT22;21924;51.934;7.414;2023-04-01T09:35:47;10.60;99.90
35804;DHT22;21924;51.934;7.414;2023-04-01T09:41:32;10.70;99.90
35804;DHT22;21924;51.934;7.414;2023-04-01T09:45:07;10.80;99.90
35804;DHT22;21924;51.934;7.414;2023-04-01T10:00:31;11.10;99.90
35804;DHT22;21924;51.934;7.414;2023-04-01T10:03:49;11.30;
35804;DHT22;21924;51.934;7.414;2023-04-01T10:21:57;11.50;99.90
35804;DHT22;21924;51.934;7.414;2023-04-01T10:31:15;11.60;99.90
35804;DHT22;21924;51.934;7.414;2023-04-01T10:37:01;11.60;99.90
35804;DHT22;21924;51.934;7.414;2023-04-01T10:53:03;12.00;99.90
35804;DHT22;21924;51.934;7.414;2023-04-01T11:01:52;12.30;99.90
35804;DHT22;21924;51.934;7.414;2023-04-01T11:11:47;12.30;99.90
35804;DHT22;21924;51.934;7.414;2023-04-01T11:15:08;12.40;99.90
35804;DHT22;21924;51.934;7.414;2023-04-01T11:37:49;11.80;99.90
35804;DHT22;21924;51.934;7.414;2023-04-01T11:43:49;11.90;99.90
35804;DHT22;21924;51.934;7.414;2023-04-01T11:49:44;11.90;99.90
35804;DHT22;21924;51.934;7.414;2023-04-01T11:56:20;12.20;99.90
35804;DHT22;21924;51.934;7.414;2023-04-01T11:59:39;12.30;99.90
35804;DHT22;21924;51.934;7.414;2023-04-01T12:05:31;12.30;99.90
35804;DHT22;21924;51.934;7.414;2023-04-01T12:14:33;12.40;99.90
35804;DHT22;21924;51.934;7.414;2023-04-01T12:17:27;12.40;99.90
35804;DHT22;21924;51.934;7.414;2023-04-01T12:32:45;12.80;99.90
35804;DHT22;21924;51.934;7.414;2023-04-01T12:44:50;13.00;99.90
35804;DHT22;21924;51.934;7.414;2023-04-01T12:57:42;13.20;99.90
35804;DHT22;21924;51.934;7.414;2023-04-01T13:01:07;13.30;99.90
35804;DHT22;21924;51.934;7.414;2023-04-01T13:13:32;13.30;99.90
35804;DHT22;21924;51.934;7.414;2023-04-01T13:20:16;13.40;99.90
35804;DHT22;21924;51.934;7.414;2023-04-01T13:29:51;13.50;99.90
35804;DHT22;21924;51.934;7.414;2023-04-01T13:35:49;13.10;99.90
35804;DHT22;21924;51.934;7.414;2023-04-01T13:39:01;12.90;99.90
35804;DHT22;21924;51.934;7.414;2023-04-01T13:44:44;12.50;99.90
35804;DHT22;21924;51.934;7.414;2023-04-01T13:47:44;12.40;99.90
35804;DHT22;21924;51.934;7.414;2023-04-01T13:53:58;12.30;99.90
35804;DHT22;21924;51.934;7.414;2023-04-01T13:59:46;12.20;99.90
35804;DHT22;21924;51.934;7.414;2023-04-01T14:03:01;12.30;99.90
35804;DHT22;21924;51.934;7.414;2023-04-01T14:06:11;12.20;99.90
35804;DHT22;21924;51.934;7.414;2023-04-01T14:09:17;12.30;99.90
35804;DHT22;21924;51.934;7.414;2023-04-01T14:15:50;12.20;99.90
35804;DHT22;21924;51.934;7.414;2023-04-01T14:25:20;12.10;99.90
35804;DHT22;21924;51.934;7.414;2023-04-01T14:28:27;12.20;99.90
35804;DHT22;21924;51.934;7.414;2023-04-01T14:31:27;12.20;99.90
35804;DHT22;21924;51.934;7.414;2023-04-01T14:43:53;12.60;99.90
35804;DHT22;21924;51.934;7.414;2023-04-01T14:52:30;12.50;99.90
35804;DHT22;21924;51.934;7.414;2023-04-01T14:58:19;12.60;99.90
35804;DHT22;21924;51.934;7.414;2023-04-01T15:04:18;12.70;99.90
35804;DHT22;21924;51.934;7.414;2023-04-01T15:10:38;12.70;99.90
35804;DHT22;21924;51.934;7.414;2023-04-01T15:16:31;12.50;99.90
35804;DHT22;21924;51.934;7.414;2023-04-01T15:19:47;12.40;99.90
35804;DHT22;21924;51.934;7.414;2023-04-01T15:22:51;12.30;99.90
35804;DHT22;21924;51.934;7.414;2023-04-01T15:25:57;12.20;99.90
35804;DHT22;21924;51.934;7.414;2023-04-01T15:34:56;11.70;99.90
35804;DHT22;21924;51.934;7.414;2023-04-01T15:43:49;11.60;99.90
35804;DHT22;21924;51.934;7.414;2023-04-01T15:46:49;11.60;99.90
35804;DHT22;21924;51.934;7.414;2023-04-01T15:49:49;11.60;99.90
35804;DHT22;21924;51.934;7.414;2023-04-01T15:53:18;11.60;99.90
35804;DHT22;21924;51.934;7.414;2023-04-01T15:59:28;11.40;99.90
35804;DHT22;21924;51.934;7.414;2023-04-01T16:02:43;11.30;99.90
35804;DHT22;21924;51.934;7.414;2023-04-01T16:05:54;11.30;99.90
35804;DHT22;21924;51.934;7.414;2023-04-01T16:12:03;11.10;99.90
35804;DHT22;21924;51.934;7.414;2023-04-01T16:14:58;11.10;99.90
35804;DHT22;21924;51.934;7.414;2023-04-01T16:18:08;11.00;99.90
35804;DHT22;21924;51.934;7.414;2023-04-01T16:21:04;11.00;99.90
35804;DHT22;21924;51.934;7.414;2023-04-01T16:24:30;11.00;99.90
35804;DHT22;21924;51.934;7.414;2023-04-01T16:30:55;11.00;99.90
35804;DHT22;21924;51.934;7.414;2023-04-01T16:33:54;11.00;99.90
35804;DHT22;21924;51.934;7.414;2023-04-01T16:36:52;11.00;99.90
35804;DHT22;21924;51.934;7.414;2023-04-01T16:42:54;11.10;99.90
35804;DHT22;21924;51.934;7.414;2023-04-01T16:45:45;10.90;99.90
35804;DHT22;21924;51.934;7.414;2023-04-01T16:49:03;11.00;99.90
35804;DHT22;21924;51.934;7.414;2023-04-01T16:51:57;11.00;99.90
35804;DHT22;21924;51.934;7.414;2023-04-01T16:55:14;11.00;99.90
35804;DHT22;21924;51.934;7.414;2023-04-01T16:58:00;11.00;99.90
35804;DHT22;21924;51.934;7.414;2023-04-01T17:00:49;11.00;99.90
35804;DHT22;21924;51.934;7.414;2023-04-01T17:03:40;11.00;99.90
35804;DHT22;21924;51.934;7.414;2023-04-01T17:06:35;11.00;99.90
35804;DHT22;21924;51.934;7.414;2023-04-01T17:12:39;11.00;99.90
35804;DHT22;21924;51.934;7.414;2023-04-01T17:15:51;11.00;99.90
35804;DHT22;21924;51.934;7.414;2023-04-01T17:18:54;10.90;99.90
35804;DHT22;21924;51.934;7.414;2023-04-01T17:22:03;10.90;99.90
35804;DHT22;21924;51.934;7.414;2023-04-01T17:27:51;10.80;99.90
35804;DHT22;21924;51.934;7.414;2023-04-01T17:30:41;10.70;99.90
35804;DHT22;21924;51.934;7.414;2023-04-01T17:39:57;10.40;99.90
35804;DHT22;21924;51.934;7.414;2023-04-01T17:49:33;10.10;99.90
35804;DHT22;21924;51.934;7.414;2023-04-01T17:52:28;10.10;99.90
35804;DHT22;21924;51.934;7.414;2023-04-01T17:55:38;10.10;99.90
35804;DHT22;21924;51.934;7.414;2023-04-01T18:01:24;9.90;99.90
35804;DHT22;21924;51.934;7.414;2023-04-01T18:16:43;9.70;99.90
35804;DHT22;21924;51.934;7.414;2023-04-01T18:22:33;9.60;99.90
35804;DHT22;21924;51.934;7.414;2023-04-01T18:25:35;9.50;99.90
35804;DHT22;21924;51.934;7.414;2023-04-01T18:31:20;9.40;99.90
35804;DHT22;21924;51.934;7.414;2023-04-01T18:34:27;9.40;99.90
35804;DHT22;21924;51.934;7.414;2023-04-01T18:37:37;9.40;99.90
35804;DHT22;21924;51.934;7.414;2023-04-01T18:40:42;9.40;99.90
35804;DHT22;21924;51.934;7.414;2023-04-01T18:43:43;9.40;99.90
35804;DHT22;21924;51.934;7.414;2023-04-01T18:53:26;9.30;99.90
35804;DHT22;21924;51.934;7.414;2023-04-01T18:56:35;9.20;99.90
35804;DHT22;21924;51.934;7.414;2023-04-01T18:59:37;9.20;99.90
35804;DHT22;21924;51.934;7.414;2023-04-01T19:02:38;9.30;99.90
35804;DHT22;21924;51.934;7.414;2023-04-01T19:05:34;9.20;99.90
35804;DHT22;21924;51.934;7.414;2023-04-01T19:11:32;9.00;99.90
35804;DHT22;21924;51.934;7.414;2023-04-01T19:14:47;8.90;99.90
35804;DHT22;21924;51.934;7.414;2023-04-01T19:30:19;8.80;99.90
35804;DHT22;21924;51.934;7.414;2023-04-01T19:33:23;8.70;99.90
35804;DHT22;21924;51.934;7.414;2023-04-01T19:36:31;8.70;99.90
35804;DHT22;21924;51.934;7.414;2023-04-01T19:39:28;8.70;99.90
35804;DHT22;21924;51.934;7.414;2023-04-01T19:52:02;8.50;99.90
35804;DHT22;21924;51.934;7.414;2023-04-01T19:54:59;8.40;99.90
35804;DHT22;21924;51.934;7.414;2023-04-01T20:00:51;8.40;99.90
35804;DHT22;21924;51.934;7.414;2023-04-01T20:15:32;8.20;99.90
35804;DHT22;21924;51.934;7.414;2023-04-01T20:18:22;8.10;99.90
35804;DHT22;21924;51.934;7.414;2023-04-01T20:21:36;8.10;99.90
35804;DHT22;21924;51.934;7.414;2023-04-01T20:24:35;8.10;99.90
35804;DHT22;21924;51.934;7.414;2023-04-01T20:27:24;8.00;99.90
35804;DHT22;21924;51.934;7.414;2023-04-01T20:30:33;8.00;99.90
35804;DHT22;21924;51.934;7.414;2023-04-01T20:33:33;7.90;99.90
35804;DHT22;21924;51.934;7.414;2023-04-01T20:36:36;7.90;99.90
35804;DHT22;21924;51.934;7.414;2023-04-01T20:45:34;7.90;99.90
35804;DHT22;21924;51.934;7.414;2023-04-01T20:51:14;7.90;99.90
35804;DHT22;21924;51.934;7.414;2023-04-01T20:57:50;7.80;99.90
35804;DHT22;21924;51.934;7.414;2023-04-01T21:00:45;7.70;99.90
35804;DHT22;21924;51.934;7.414;2023-04-01T21:07:20;7.70;99.90
35804;DHT22;21924;51.934;7.414;2023-04-01T21:10:33;7.60;99.90
35804;DHT22;21924;51.934;7.414;2023-04-01T21:19:22;7.50;99.90
35804;DHT22;21924;51.934;7.414;2023-04-01T21:22:31;7.50;99.90
35804;DHT22;21924;51.934;7.414;2023-04-01T21:28:40;7.40;99.90
35804;DHT22;21924;51.934;7.414;2023-04-01T21:34:34;7.40;99.90
35804;DHT22;21924;51.934;7.414;2023-04-01T21:37:33;7.30;99.90
35804;DHT22;21924;51.934;7.414;2023-04-01T21:40:43;7.30;99.90
35804;DHT22;21924;51.934;7.414;2023-04-01T21:43:44;7.40;99.90
35804;DHT22;21924;51.934;7.414;2023-04-01T21:53:24;7.20;99.90
35804;DHT22;21924;51.934;7.414;2023-04-01T22:08:56;7.30;99.90
35804;DHT22;21924;51.934;7.414;2023-04-01T22:11:56;7.20;99.90
35804;DHT22;21924;51.934;7.414;2023-04-01T22:18:16;7.00;99.90
35804;DHT22;21924;51.934;7.414;2023-04-01T22:24:01;7.00;99.90
35804;DHT22;21924;51.934;7.414;2023-04-01T22:26:56;7.00;99.90
35804;DHT22;21924;51.934;7.414;2023-04-01T22:30:10;7.00;99.90
35804;DHT22;21924;51.934;7.414;2023-04-01T22:33:11;6.90;99.90
35804;DHT22;21924;51.934;7.414;2023-04-01T22:36:21;6.90;99.90
35804;DHT22;21924;51.934;7.414;2023-04-01T22:41:59;6.90;99.90
35804;DHT22;21924;51.934;7.414;2023-04-01T22:53:57;6.70;99.90
35804;DHT22;21924;51.934;7.414;2023-04-01T22:56:48;6.60;99.90
35804;DHT22;21924;51.934;7.414;2023-04-01T23:02:58;6.50;99.90
35804;DHT22;21924;51.934;7.414;2023-04-01T23:05:58;6.40;99.90
35804;DHT22;21924;51.934;7.414;2023-04-01T23:14:43;6.40;99.90
35804;DHT22;21924;51.934;7.414;2023-04-01T23:27:33;6.30;99.90
35804;DHT22;21924;51.934;7.414;2023-04-01T23:33:28;6.30;99.90
35804;DHT22;21924;51.934;7.414;2023-04-01T23:36:14;6.30;99.90
35804;DHT22;21924;51.934;7.414;2023-04-01T23:39:06;6.20;99.90
35804;DHT22;21924;51.934;7.414;2023-04-01T23:42:07;6.20;99.90
35804;DHT22;21924;51.934;7.414;2023-04-01T23:44:58;6.20;99.90
35804;DHT22;21924;51.934;7.414;2023-04-01T23:47:45;6.20;99.90
35804;DHT22;21924;51.934;7.414;2023-04-01T23:50:31;6.20;99.90
35804;DHT22;21924;51.934;7.414;2023-04-01T23:53:28;6.20;99.90
35804;DHT22;21924;51.934;7.414;2023-04-01T23:56:16;6.20;99.90
35804;DHT22;21924;51.934;7.414;2023-04-01T23:59:02;6.10;99.90
